sensor_id;sensor_type;location;lat;lon;timestamp;temperature;humidity
72772;SHT30;60894;42.544;1.516;2023-02-15T00:01:37;1.99;55.99
72772;SHT30;60894;42.544;1.516;2023-02-15T00:04:05;1.99;54.75
72772;SHT30;60894;42.544;1.516;2023-02-15T00:06:32;1.94;56.11
72772;SHT30;60894;42.544;1.516;2023-02-15T00:09:00;2.04;55.67
72772;SHT30;60894;42.544;1.516;2023-02-15T00:11:28;1.94;55.39
72772;SHT30;60894;42.544;1.516;2023-02-15T00:14:10;1.96;55.24
72772;SHT30;60894;42.544;1.516;2023-02-15T00:16:39;2.06;54.58
72772;SHT30;60894;42.544;1.516;2023-02-15T00:19:08;2.07;54.93
72772;SHT30;60894;42.544;1.516;2023-02-15T00:21:35;2.00;55.79
72772;SHT30;60894;42.544;1.516;2023-02-15T00:24:05;1.91;55.25
72772;SHT30;60894;42.544;1.516;2023-02-15T00:26:32;1.91;55.45
72772;SHT30;60894;42.544;1.516;2023-02-15T00:29:00;1.94;54.89
72772;SHT30;60894;42.544;1.516;2023-02-15T00:31:29;1.86;56.48
72772;SHT30;60894;42.544;1.516;2023-02-15T00:34:02;1.87;56.31
72772;SHT30;60894;42.544;1.516;2023-02-15T00:36:30;1.90;55.99
72772;SHT30;60894;42.544;1.516;2023-02-15T00:38:57;1.96;56.30
72772;SHT30;60894;42.544;1.516;2023-02-15T00:41:24;1.96;55.63
72772;SHT30;60894;42.544;1.516;2023-02-15T00:43:52;1.83;56.13
72772;SHT30;60894;42.544;1.516;2023-02-15T00:46:19;1.90;55.97
72772;SHT30;60894;42.544;1.516;2023-02-15T00:48:46;1.91;55.24
72772;SHT30;60894;42.544;1.516;2023-02-15T00:51:14;1.91;55.06
72772;SHT30;60894;42.544;1.516;2023-02-15T00:53:42;1.81;55.24
72772;SHT30;60894;42.544;1.516;2023-02-15T00:56:10;1.87;56.37
72772;SHT30;60894;42.544;1.516;2023-02-15T00:58:37;1.70;57.01
72772;SHT30;60894;42.544;1.516;2023-02-15T01:01:06;1.74;56.44
72772;SHT30;60894;42.544;1.516;2023-02-15T01:03:34;1.83;56.28
72772;SHT30;60894;42.544;1.516;2023-02-15T01:06:01;1.84;56.73
72772;SHT30;60894;42.544;1.516;2023-02-15T01:08:30;1.91;56.31
72772;SHT30;60894;42.544;1.516;2023-02-15T01:11:03;1.81;55.87
72772;SHT30;60894;42.544;1.516;2023-02-15T01:13:30;1.94;55.80
72772;SHT30;60894;42.544;1.516;2023-02-15T01:15:58;1.80;56.62
72772;SHT30;60894;42.544;1.516;2023-02-15T01:18:25;1.79;56.36
72772;SHT30;60894;42.544;1.516;2023-02-15T01:20:53;1.86;55.58
72772;SHT30;60894;42.544;1.516;2023-02-15T01:23:20;1.90;55.23
72772;SHT30;60894;42.544;1.516;2023-02-15T01:25:48;1.77;55.54
72772;SHT30;60894;42.544;1.516;2023-02-15T01:28:16;1.80;56.74
72772;SHT30;60894;42.544;1.516;2023-02-15T01:30:43;1.84;56.26
72772;SHT30;60894;42.544;1.516;2023-02-15T01:33:10;1.74;55.96
72772;SHT30;60894;42.544;1.516;2023-02-15T01:35:43;1.90;55.77
72772;SHT30;60894;42.544;1.516;2023-02-15T01:38:11;1.93;55.37
72772;SHT30;60894;42.544;1.516;2023-02-15T01:40:38;1.90;54.91
72772;SHT30;60894;42.544;1.516;2023-02-15T01:43:09;1.86;55.38
72772;SHT30;60894;42.544;1.516;2023-02-15T01:45:38;1.83;55.78
72772;SHT30;60894;42.544;1.516;2023-02-15T01:48:14;1.79;56.67
72772;SHT30;60894;42.544;1.516;2023-02-15T01:50:47;1.74;57.46
72772;SHT30;60894;42.544;1.516;2023-02-15T01:53:17;1.66;57.76
72772;SHT30;60894;42.544;1.516;2023-02-15T01:55:48;1.59;58.00
72772;SHT30;60894;42.544;1.516;2023-02-15T01:58:18;1.55;57.83
72772;SHT30;60894;42.544;1.516;2023-02-15T02:00:46;1.50;57.93
72772;SHT30;60894;42.544;1.516;2023-02-15T02:03:13;1.46;58.38
72772;SHT30;60894;42.544;1.516;2023-02-15T02:05:41;1.46;58.39
72772;SHT30;60894;42.544;1.516;2023-02-15T02:08:09;1.43;58.46
72772;SHT30;60894;42.544;1.516;2023-02-15T02:10:36;1.42;57.85
72772;SHT30;60894;42.544;1.516;2023-02-15T02:13:05;1.40;58.67
72772;SHT30;60894;42.544;1.516;2023-02-15T02:15:39;1.49;58.40
72772;SHT30;60894;42.544;1.516;2023-02-15T02:18:20;1.60;58.16
72772;SHT30;60894;42.544;1.516;2023-02-15T02:21:07;1.56;57.40
72772;SHT30;60894;42.544;1.516;2023-02-15T02:23:58;1.59;56.94
72772;SHT30;60894;42.544;1.516;2023-02-15T02:30:37;1.58;56.29
72772;SHT30;60894;42.544;1.516;2023-02-15T02:33:19;1.50;57.28
72772;SHT30;60894;42.544;1.516;2023-02-15T02:35:56;1.39;57.53
72772;SHT30;60894;42.544;1.516;2023-02-15T02:38:28;1.43;58.63
72772;SHT30;60894;42.544;1.516;2023-02-15T02:41:05;1.52;58.22
72772;SHT30;60894;42.544;1.516;2023-02-15T02:43:38;1.53;57.72
72772;SHT30;60894;42.544;1.516;2023-02-15T02:46:13;1.48;57.13
72772;SHT30;60894;42.544;1.516;2023-02-15T02:48:45;1.59;56.76
72772;SHT30;60894;42.544;1.516;2023-02-15T02:51:14;1.63;56.59
72772;SHT30;60894;42.544;1.516;2023-02-15T02:53:49;1.55;57.77
72772;SHT30;60894;42.544;1.516;2023-02-15T02:56:22;1.48;58.28
72772;SHT30;60894;42.544;1.516;2023-02-15T02:58:57;1.46;58.27
72772;SHT30;60894;42.544;1.516;2023-02-15T03:01:29;1.39;57.25
72772;SHT30;60894;42.544;1.516;2023-02-15T03:04:00;1.36;58.82
72772;SHT30;60894;42.544;1.516;2023-02-15T03:06:32;1.32;58.75
72772;SHT30;60894;42.544;1.516;2023-02-15T03:09:05;1.38;57.77
72772;SHT30;60894;42.544;1.516;2023-02-15T03:11:33;1.42;58.02
72772;SHT30;60894;42.544;1.516;2023-02-15T03:14:00;1.43;56.75
72772;SHT30;60894;42.544;1.516;2023-02-15T03:16:28;1.42;56.73
72772;SHT30;60894;42.544;1.516;2023-02-15T03:18:59;1.39;58.21
72772;SHT30;60894;42.544;1.516;2023-02-15T03:21:31;1.34;57.63
72772;SHT30;60894;42.544;1.516;2023-02-15T03:24:03;1.34;57.60
72772;SHT30;60894;42.544;1.516;2023-02-15T03:26:33;1.35;58.25
72772;SHT30;60894;42.544;1.516;2023-02-15T03:29:02;1.35;58.03
72772;SHT30;60894;42.544;1.516;2023-02-15T03:31:32;1.29;57.84
72772;SHT30;60894;42.544;1.516;2023-02-15T03:34:04;1.25;58.65
72772;SHT30;60894;42.544;1.516;2023-02-15T03:36:38;1.27;58.47
72772;SHT30;60894;42.544;1.516;2023-02-15T03:39:11;1.24;58.48
72772;SHT30;60894;42.544;1.516;2023-02-15T03:41:42;1.29;58.47
72772;SHT30;60894;42.544;1.516;2023-02-15T03:44:14;1.28;59.04
72772;SHT30;60894;42.544;1.516;2023-02-15T03:46:47;1.27;59.17
72772;SHT30;60894;42.544;1.516;2023-02-15T03:49:21;1.35;58.93
72772;SHT30;60894;42.544;1.516;2023-02-15T03:51:51;1.31;59.40
72772;SHT30;60894;42.544;1.516;2023-02-15T03:54:22;1.35;58.81
72772;SHT30;60894;42.544;1.516;2023-02-15T03:57:10;1.36;58.66
72772;SHT30;60894;42.544;1.516;2023-02-15T03:59:55;1.45;58.34
72772;SHT30;60894;42.544;1.516;2023-02-15T04:02:45;1.36;58.17
72772;SHT30;60894;42.544;1.516;2023-02-15T04:05:19;1.38;57.03
72772;SHT30;60894;42.544;1.516;2023-02-15T04:07:46;1.36;57.13
72772;SHT30;60894;42.544;1.516;2023-02-15T04:10:13;1.28;58.70
72772;SHT30;60894;42.544;1.516;2023-02-15T04:13:12;1.31;58.25
72772;SHT30;60894;42.544;1.516;2023-02-15T04:15:39;1.25;58.59
72772;SHT30;60894;42.544;1.516;2023-02-15T04:18:23;1.18;58.54
72772;SHT30;60894;42.544;1.516;2023-02-15T04:21:09;1.28;57.11
72772;SHT30;60894;42.544;1.516;2023-02-15T04:23:53;1.17;57.77
72772;SHT30;60894;42.544;1.516;2023-02-15T04:26:38;1.22;57.74
72772;SHT30;60894;42.544;1.516;2023-02-15T04:29:05;1.27;58.86
72772;SHT30;60894;42.544;1.516;2023-02-15T04:31:32;1.22;59.36
72772;SHT30;60894;42.544;1.516;2023-02-15T04:33:59;1.31;58.85
72772;SHT30;60894;42.544;1.516;2023-02-15T04:36:27;1.19;59.45
72772;SHT30;60894;42.544;1.516;2023-02-15T04:38:54;1.14;59.40
72772;SHT30;60894;42.544;1.516;2023-02-15T04:41:21;1.18;59.30
72772;SHT30;60894;42.544;1.516;2023-02-15T04:43:48;1.15;59.88
72772;SHT30;60894;42.544;1.516;2023-02-15T04:46:15;1.12;59.71
72772;SHT30;60894;42.544;1.516;2023-02-15T04:48:42;1.15;59.65
72772;SHT30;60894;42.544;1.516;2023-02-15T04:51:09;1.08;59.73
72772;SHT30;60894;42.544;1.516;2023-02-15T04:53:38;1.17;59.57
72772;SHT30;60894;42.544;1.516;2023-02-15T04:56:05;1.15;59.33
72772;SHT30;60894;42.544;1.516;2023-02-15T04:58:32;1.14;59.33
72772;SHT30;60894;42.544;1.516;2023-02-15T05:00:59;1.17;59.34
72772;SHT30;60894;42.544;1.516;2023-02-15T05:03:26;1.19;59.84
72772;SHT30;60894;42.544;1.516;2023-02-15T05:05:53;1.19;59.68
72772;SHT30;60894;42.544;1.516;2023-02-15T05:08:20;1.28;58.16
72772;SHT30;60894;42.544;1.516;2023-02-15T05:10:49;1.24;58.21
72772;SHT30;60894;42.544;1.516;2023-02-15T05:13:16;1.27;58.01
72772;SHT30;60894;42.544;1.516;2023-02-15T05:15:47;1.31;58.19
72772;SHT30;60894;42.544;1.516;2023-02-15T05:18:14;1.15;59.25
72772;SHT30;60894;42.544;1.516;2023-02-15T05:20:41;1.17;59.41
72772;SHT30;60894;42.544;1.516;2023-02-15T05:23:08;1.07;59.17
72772;SHT30;60894;42.544;1.516;2023-02-15T05:25:35;1.24;58.37
72772;SHT30;60894;42.544;1.516;2023-02-15T05:28:21;1.08;58.46
72772;SHT30;60894;42.544;1.516;2023-02-15T05:30:51;1.07;58.49
72772;SHT30;60894;42.544;1.516;2023-02-15T05:33:25;1.14;57.26
72772;SHT30;60894;42.544;1.516;2023-02-15T05:35:52;1.22;57.09
72772;SHT30;60894;42.544;1.516;2023-02-15T05:38:19;1.11;57.00
72772;SHT30;60894;42.544;1.516;2023-02-15T05:40:46;1.08;57.32
72772;SHT30;60894;42.544;1.516;2023-02-15T05:43:13;1.19;56.75
72772;SHT30;60894;42.544;1.516;2023-02-15T05:45:44;1.22;56.30
72772;SHT30;60894;42.544;1.516;2023-02-15T05:48:11;1.19;56.73
72772;SHT30;60894;42.544;1.516;2023-02-15T05:50:38;1.11;57.03
72772;SHT30;60894;42.544;1.516;2023-02-15T05:53:05;1.05;57.46
72772;SHT30;60894;42.544;1.516;2023-02-15T05:55:32;1.01;58.80
72772;SHT30;60894;42.544;1.516;2023-02-15T05:57:59;0.95;59.57
72772;SHT30;60894;42.544;1.516;2023-02-15T06:00:26;0.89;59.61
72772;SHT30;60894;42.544;1.516;2023-02-15T06:02:55;0.84;59.34
72772;SHT30;60894;42.544;1.516;2023-02-15T06:05:22;0.87;59.22
72772;SHT30;60894;42.544;1.516;2023-02-15T06:07:49;0.87;59.11
72772;SHT30;60894;42.544;1.516;2023-02-15T06:10:16;0.80;58.40
72772;SHT30;60894;42.544;1.516;2023-02-15T06:12:44;0.80;59.07
72772;SHT30;60894;42.544;1.516;2023-02-15T06:15:11;0.84;60.34
72772;SHT30;60894;42.544;1.516;2023-02-15T06:17:40;0.91;59.91
72772;SHT30;60894;42.544;1.516;2023-02-15T06:20:10;0.85;60.05
72772;SHT30;60894;42.544;1.516;2023-02-15T06:22:37;0.85;59.55
72772;SHT30;60894;42.544;1.516;2023-02-15T06:25:05;0.77;59.18
72772;SHT30;60894;42.544;1.516;2023-02-15T06:27:35;0.70;58.78
72772;SHT30;60894;42.544;1.516;2023-02-15T06:30:03;0.68;59.08
72772;SHT30;60894;42.544;1.516;2023-02-15T06:32:31;0.61;60.23
72772;SHT30;60894;42.544;1.516;2023-02-15T06:34:58;0.60;60.29
72772;SHT30;60894;42.544;1.516;2023-02-15T06:37:26;0.58;59.75
72772;SHT30;60894;42.544;1.516;2023-02-15T06:39:53;0.58;59.56
72772;SHT30;60894;42.544;1.516;2023-02-15T06:42:21;0.58;58.75
72772;SHT30;60894;42.544;1.516;2023-02-15T06:44:48;0.91;56.41
72772;SHT30;60894;42.544;1.516;2023-02-15T06:47:15;0.81;58.74
72772;SHT30;60894;42.544;1.516;2023-02-15T06:49:42;0.70;58.95
72772;SHT30;60894;42.544;1.516;2023-02-15T06:52:09;0.68;57.25
72772;SHT30;60894;42.544;1.516;2023-02-15T06:54:37;0.99;56.69
72772;SHT30;60894;42.544;1.516;2023-02-15T06:57:04;0.89;56.88
72772;SHT30;60894;42.544;1.516;2023-02-15T06:59:31;0.77;56.80
72772;SHT30;60894;42.544;1.516;2023-02-15T07:01:58;0.73;57.63
72772;SHT30;60894;42.544;1.516;2023-02-15T07:04:25;0.54;58.03
72772;SHT30;60894;42.544;1.516;2023-02-15T07:06:54;0.64;57.09
72772;SHT30;60894;42.544;1.516;2023-02-15T07:09:21;0.54;58.39
72772;SHT30;60894;42.544;1.516;2023-02-15T07:11:49;0.43;58.62
72772;SHT30;60894;42.544;1.516;2023-02-15T07:14:34;0.36;59.13
72772;SHT30;60894;42.544;1.516;2023-02-15T07:17:01;0.32;59.25
72772;SHT30;60894;42.544;1.516;2023-02-15T07:19:28;0.37;59.66
72772;SHT30;60894;42.544;1.516;2023-02-15T07:21:55;0.33;59.43
72772;SHT30;60894;42.544;1.516;2023-02-15T07:24:22;0.29;59.14
72772;SHT30;60894;42.544;1.516;2023-02-15T07:26:51;0.29;59.21
72772;SHT30;60894;42.544;1.516;2023-02-15T07:29:18;0.35;58.68
72772;SHT30;60894;42.544;1.516;2023-02-15T07:31:45;0.42;58.79
72772;SHT30;60894;42.544;1.516;2023-02-15T07:34:12;0.32;58.23
72772;SHT30;60894;42.544;1.516;2023-02-15T07:36:39;0.42;57.97
72772;SHT30;60894;42.544;1.516;2023-02-15T07:39:06;0.36;57.73
72772;SHT30;60894;42.544;1.516;2023-02-15T07:41:33;0.49;56.61
72772;SHT30;60894;42.544;1.516;2023-02-15T07:44:01;0.40;57.24
72772;SHT30;60894;42.544;1.516;2023-02-15T07:46:28;0.45;55.38
72772;SHT30;60894;42.544;1.516;2023-02-15T07:48:55;0.45;56.27
72772;SHT30;60894;42.544;1.516;2023-02-15T07:51:22;0.39;57.05
72772;SHT30;60894;42.544;1.516;2023-02-15T07:53:49;0.49;56.67
72772;SHT30;60894;42.544;1.516;2023-02-15T07:56:17;0.50;56.25
72772;SHT30;60894;42.544;1.516;2023-02-15T07:58:44;0.53;56.34
72772;SHT30;60894;42.544;1.516;2023-02-15T08:01:24;0.37;55.71
72772;SHT30;60894;42.544;1.516;2023-02-15T08:03:52;0.43;55.86
72772;SHT30;60894;42.544;1.516;2023-02-15T08:06:20;0.46;55.96
72772;SHT30;60894;42.544;1.516;2023-02-15T08:08:47;0.49;54.90
72772;SHT30;60894;42.544;1.516;2023-02-15T08:11:16;0.57;54.43
72772;SHT30;60894;42.544;1.516;2023-02-15T08:13:59;0.63;53.97
72772;SHT30;60894;42.544;1.516;2023-02-15T08:16:32;0.73;52.72
72772;SHT30;60894;42.544;1.516;2023-02-15T08:19:00;0.77;52.59
72772;SHT30;60894;42.544;1.516;2023-02-15T08:21:28;0.88;52.51
72772;SHT30;60894;42.544;1.516;2023-02-15T08:23:56;0.97;52.47
72772;SHT30;60894;42.544;1.516;2023-02-15T08:26:23;1.05;50.97
72772;SHT30;60894;42.544;1.516;2023-02-15T08:28:51;1.07;51.20
72772;SHT30;60894;42.544;1.516;2023-02-15T08:31:18;1.15;51.25
72772;SHT30;60894;42.544;1.516;2023-02-15T08:33:48;1.08;51.59
72772;SHT30;60894;42.544;1.516;2023-02-15T08:36:17;1.25;51.75
72772;SHT30;60894;42.544;1.516;2023-02-15T08:38:45;1.15;50.26
72772;SHT30;60894;42.544;1.516;2023-02-15T08:41:14;1.29;50.26
72772;SHT30;60894;42.544;1.516;2023-02-15T08:43:41;1.39;49.34
72772;SHT30;60894;42.544;1.516;2023-02-15T08:46:11;1.43;48.58
72772;SHT30;60894;42.544;1.516;2023-02-15T08:48:38;1.66;47.99
72772;SHT30;60894;42.544;1.516;2023-02-15T08:51:09;1.71;47.38
72772;SHT30;60894;42.544;1.516;2023-02-15T08:53:38;1.76;47.14
72772;SHT30;60894;42.544;1.516;2023-02-15T08:56:05;1.79;46.69
72772;SHT30;60894;42.544;1.516;2023-02-15T08:58:33;1.89;46.15
72772;SHT30;60894;42.544;1.516;2023-02-15T09:01:00;1.97;45.65
72772;SHT30;60894;42.544;1.516;2023-02-15T09:03:28;2.04;43.94
72772;SHT30;60894;42.544;1.516;2023-02-15T09:05:59;2.21;43.90
72772;SHT30;60894;42.544;1.516;2023-02-15T09:08:28;2.30;43.01
72772;SHT30;60894;42.544;1.516;2023-02-15T09:11:04;2.48;42.09
72772;SHT30;60894;42.544;1.516;2023-02-15T09:13:31;2.63;40.65
72772;SHT30;60894;42.544;1.516;2023-02-15T09:16:00;2.88;38.97
72772;SHT30;60894;42.544;1.516;2023-02-15T09:18:29;3.03;38.45
72772;SHT30;60894;42.544;1.516;2023-02-15T09:20:56;3.31;37.40
72772;SHT30;60894;42.544;1.516;2023-02-15T09:23:23;3.60;36.54
72772;SHT30;60894;42.544;1.516;2023-02-15T09:25:51;3.84;36.50
72772;SHT30;60894;42.544;1.516;2023-02-15T09:28:18;4.03;34.84
72772;SHT30;60894;42.544;1.516;2023-02-15T09:30:45;4.22;34.67
72772;SHT30;60894;42.544;1.516;2023-02-15T09:33:12;4.37;33.29
72772;SHT30;60894;42.544;1.516;2023-02-15T09:35:39;4.60;33.83
72772;SHT30;60894;42.544;1.516;2023-02-15T09:38:06;4.87;33.60
72772;SHT30;60894;42.544;1.516;2023-02-15T09:40:42;5.01;33.50
72772;SHT30;60894;42.544;1.516;2023-02-15T09:43:28;5.25;33.27
72772;SHT30;60894;42.544;1.516;2023-02-15T09:46:22;5.60;33.59
72772;SHT30;60894;42.544;1.516;2023-02-15T09:48:54;5.87;32.46
72772;SHT30;60894;42.544;1.516;2023-02-15T09:52:00;6.13;32.82
72772;SHT30;60894;42.544;1.516;2023-02-15T09:54:41;6.35;32.55
72772;SHT30;60894;42.544;1.516;2023-02-15T09:57:22;6.50;32.34
72772;SHT30;60894;42.544;1.516;2023-02-15T09:59:57;6.69;32.11
72772;SHT30;60894;42.544;1.516;2023-02-15T10:02:38;6.89;31.68
72772;SHT30;60894;42.544;1.516;2023-02-15T10:05:19;7.13;30.58
72772;SHT30;60894;42.544;1.516;2023-02-15T10:08:13;7.46;29.93
72772;SHT30;60894;42.544;1.516;2023-02-15T10:10:51;7.44;29.25
72772;SHT30;60894;42.544;1.516;2023-02-15T10:13:49;7.64;28.73
72772;SHT30;60894;42.544;1.516;2023-02-15T10:16:25;7.75;28.35
72772;SHT30;60894;42.544;1.516;2023-02-15T10:19:01;7.92;28.32
72772;SHT30;60894;42.544;1.516;2023-02-15T10:21:40;7.96;28.32
72772;SHT30;60894;42.544;1.516;2023-02-15T10:24:23;8.10;28.40
72772;SHT30;60894;42.544;1.516;2023-02-15T10:26:56;8.19;28.64
72772;SHT30;60894;42.544;1.516;2023-02-15T10:29:32;8.57;28.47
72772;SHT30;60894;42.544;1.516;2023-02-15T10:32:13;9.00;28.44
72772;SHT30;60894;42.544;1.516;2023-02-15T10:34:48;9.28;27.69
72772;SHT30;60894;42.544;1.516;2023-02-15T10:37:41;9.77;27.36
72772;SHT30;60894;42.544;1.516;2023-02-15T10:40:22;9.83;26.51
72772;SHT30;60894;42.544;1.516;2023-02-15T10:46:14;9.32;25.98
72772;SHT30;60894;42.544;1.516;2023-02-15T10:49:09;9.44;27.05
72772;SHT30;60894;42.544;1.516;2023-02-15T10:51:46;9.80;27.38
72772;SHT30;60894;42.544;1.516;2023-02-15T10:54:22;10.10;27.00
72772;SHT30;60894;42.544;1.516;2023-02-15T10:57:02;10.51;26.42
72772;SHT30;60894;42.544;1.516;2023-02-15T10:59:44;10.77;26.34
72772;SHT30;60894;42.544;1.516;2023-02-15T11:02:22;10.92;25.88
72772;SHT30;60894;42.544;1.516;2023-02-15T11:04:59;10.97;26.17
72772;SHT30;60894;42.544;1.516;2023-02-15T11:07:33;11.17;25.79
72772;SHT30;60894;42.544;1.516;2023-02-15T11:10:12;9.84;26.77
72772;SHT30;60894;42.544;1.516;2023-02-15T11:12:43;9.86;26.35
72772;SHT30;60894;42.544;1.516;2023-02-15T11:15:16;9.74;27.12
72772;SHT30;60894;42.544;1.516;2023-02-15T11:17:47;9.44;27.09
72772;SHT30;60894;42.544;1.516;2023-02-15T11:20:23;9.52;26.98
72772;SHT30;60894;42.544;1.516;2023-02-15T11:22:51;9.56;26.82
72772;SHT30;60894;42.544;1.516;2023-02-15T11:25:23;10.08;27.01
72772;SHT30;60894;42.544;1.516;2023-02-15T11:27:51;10.27;26.66
72772;SHT30;60894;42.544;1.516;2023-02-15T11:30:21;10.31;25.95
72772;SHT30;60894;42.544;1.516;2023-02-15T11:32:51;10.95;26.65
72772;SHT30;60894;42.544;1.516;2023-02-15T11:35:26;10.68;25.16
72772;SHT30;60894;42.544;1.516;2023-02-15T11:37:58;10.86;25.54
72772;SHT30;60894;42.544;1.516;2023-02-15T11:40:31;10.86;25.10
72772;SHT30;60894;42.544;1.516;2023-02-15T11:43:03;10.52;25.62
72772;SHT30;60894;42.544;1.516;2023-02-15T11:45:32;10.82;25.34
72772;SHT30;60894;42.544;1.516;2023-02-15T11:48:00;10.83;25.18
72772;SHT30;60894;42.544;1.516;2023-02-15T11:50:32;11.20;25.90
72772;SHT30;60894;42.544;1.516;2023-02-15T11:53:01;11.55;25.22
72772;SHT30;60894;42.544;1.516;2023-02-15T11:55:29;11.30;25.00
72772;SHT30;60894;42.544;1.516;2023-02-15T11:58:02;10.83;25.45
72772;SHT30;60894;42.544;1.516;2023-02-15T12:00:35;10.97;25.88
72772;SHT30;60894;42.544;1.516;2023-02-15T12:03:10;11.31;25.75
72772;SHT30;60894;42.544;1.516;2023-02-15T12:05:42;11.04;25.62
72772;SHT30;60894;42.544;1.516;2023-02-15T12:08:15;11.10;25.83
72772;SHT30;60894;42.544;1.516;2023-02-15T12:10:55;10.97;25.43
72772;SHT30;60894;42.544;1.516;2023-02-15T12:13:23;11.17;25.07
72772;SHT30;60894;42.544;1.516;2023-02-15T12:15:52;11.19;25.12
72772;SHT30;60894;42.544;1.516;2023-02-15T12:18:35;11.43;24.53
72772;SHT30;60894;42.544;1.516;2023-02-15T12:21:08;11.47;25.58
72772;SHT30;60894;42.544;1.516;2023-02-15T12:23:42;11.30;23.18
72772;SHT30;60894;42.544;1.516;2023-02-15T12:26:10;11.55;24.95
72772;SHT30;60894;42.544;1.516;2023-02-15T12:28:40;11.27;22.92
72772;SHT30;60894;42.544;1.516;2023-02-15T12:31:23;11.24;23.24
72772;SHT30;60894;42.544;1.516;2023-02-15T12:33:52;11.19;22.70
72772;SHT30;60894;42.544;1.516;2023-02-15T12:36:24;10.95;22.34
72772;SHT30;60894;42.544;1.516;2023-02-15T12:39:05;11.13;22.17
72772;SHT30;60894;42.544;1.516;2023-02-15T12:41:32;11.23;22.03
72772;SHT30;60894;42.544;1.516;2023-02-15T12:44:06;11.27;21.80
72772;SHT30;60894;42.544;1.516;2023-02-15T12:46:34;11.48;20.77
72772;SHT30;60894;42.544;1.516;2023-02-15T12:49:18;11.67;20.70
72772;SHT30;60894;42.544;1.516;2023-02-15T12:51:48;11.57;20.68
72772;SHT30;60894;42.544;1.516;2023-02-15T12:54:20;11.60;20.43
72772;SHT30;60894;42.544;1.516;2023-02-15T12:56:52;11.54;19.98
72772;SHT30;60894;42.544;1.516;2023-02-15T12:59:20;11.34;20.01
72772;SHT30;60894;42.544;1.516;2023-02-15T13:01:48;11.75;19.68
72772;SHT30;60894;42.544;1.516;2023-02-15T13:04:22;11.89;19.91
72772;SHT30;60894;42.544;1.516;2023-02-15T13:06:54;12.08;19.90
72772;SHT30;60894;42.544;1.516;2023-02-15T13:09:33;12.01;19.67
72772;SHT30;60894;42.544;1.516;2023-02-15T13:12:20;12.02;19.63
72772;SHT30;60894;42.544;1.516;2023-02-15T13:14:50;12.42;20.02
72772;SHT30;60894;42.544;1.516;2023-02-15T13:17:21;12.40;19.92
72772;SHT30;60894;42.544;1.516;2023-02-15T13:19:53;12.46;19.74
72772;SHT30;60894;42.544;1.516;2023-02-15T13:22:25;12.64;19.44
72772;SHT30;60894;42.544;1.516;2023-02-15T13:24:56;12.66;19.41
72772;SHT30;60894;42.544;1.516;2023-02-15T13:27:29;12.87;19.12
72772;SHT30;60894;42.544;1.516;2023-02-15T13:30:02;13.28;19.06
72772;SHT30;60894;42.544;1.516;2023-02-15T13:32:31;13.80;17.94
72772;SHT30;60894;42.544;1.516;2023-02-15T13:35:03;14.09;17.98
72772;SHT30;60894;42.544;1.516;2023-02-15T13:40:41;14.23;17.09
72772;SHT30;60894;42.544;1.516;2023-02-15T13:43:25;14.03;16.89
72772;SHT30;60894;42.544;1.516;2023-02-15T13:46:09;13.85;17.53
72772;SHT30;60894;42.544;1.516;2023-02-15T13:48:46;13.75;17.40
72772;SHT30;60894;42.544;1.516;2023-02-15T13:51:19;13.77;17.71
72772;SHT30;60894;42.544;1.516;2023-02-15T13:54:08;13.67;17.64
72772;SHT30;60894;42.544;1.516;2023-02-15T13:56:49;13.85;18.16
72772;SHT30;60894;42.544;1.516;2023-02-15T13:59:33;13.93;17.31
72772;SHT30;60894;42.544;1.516;2023-02-15T14:02:32;13.59;17.06
72772;SHT30;60894;42.544;1.516;2023-02-15T14:05:20;13.87;16.64
72772;SHT30;60894;42.544;1.516;2023-02-15T14:07:57;14.41;16.40
72772;SHT30;60894;42.544;1.516;2023-02-15T14:10:35;15.19;15.79
72772;SHT30;60894;42.544;1.516;2023-02-15T14:13:24;15.13;15.11
72772;SHT30;60894;42.544;1.516;2023-02-15T14:15:59;15.05;15.00
72772;SHT30;60894;42.544;1.516;2023-02-15T14:18:36;14.98;13.81
72772;SHT30;60894;42.544;1.516;2023-02-15T14:21:10;14.89;14.59
72772;SHT30;60894;42.544;1.516;2023-02-15T14:23:47;15.09;14.50
72772;SHT30;60894;42.544;1.516;2023-02-15T14:26:21;15.02;14.04
72772;SHT30;60894;42.544;1.516;2023-02-15T14:29:06;15.08;13.80
72772;SHT30;60894;42.544;1.516;2023-02-15T14:31:42;15.20;14.19
72772;SHT30;60894;42.544;1.516;2023-02-15T14:34:19;15.46;13.58
72772;SHT30;60894;42.544;1.516;2023-02-15T14:36:48;15.43;13.59
72772;SHT30;60894;42.544;1.516;2023-02-15T14:39:29;15.00;13.33
72772;SHT30;60894;42.544;1.516;2023-02-15T14:42:20;14.79;13.70
72772;SHT30;60894;42.544;1.516;2023-02-15T14:44:54;14.79;13.60
72772;SHT30;60894;42.544;1.516;2023-02-15T14:47:28;14.85;13.83
72772;SHT30;60894;42.544;1.516;2023-02-15T14:49:58;14.84;13.75
72772;SHT30;60894;42.544;1.516;2023-02-15T14:52:25;14.81;13.99
72772;SHT30;60894;42.544;1.516;2023-02-15T14:54:53;14.63;13.84
72772;SHT30;60894;42.544;1.516;2023-02-15T14:57:24;14.64;14.08
72772;SHT30;60894;42.544;1.516;2023-02-15T14:59:55;14.23;13.92
72772;SHT30;60894;42.544;1.516;2023-02-15T15:02:29;14.21;14.69
72772;SHT30;60894;42.544;1.516;2023-02-15T15:05:01;14.17;14.34
72772;SHT30;60894;42.544;1.516;2023-02-15T15:07:37;13.79;14.32
72772;SHT30;60894;42.544;1.516;2023-02-15T15:10:34;13.87;14.82
72772;SHT30;60894;42.544;1.516;2023-02-15T15:13:38;13.96;15.89
72772;SHT30;60894;42.544;1.516;2023-02-15T15:16:46;13.61;15.95
72772;SHT30;60894;42.544;1.516;2023-02-15T15:22:34;13.17;15.42
72772;SHT30;60894;42.544;1.516;2023-02-15T15:25:02;13.00;17.09
72772;SHT30;60894;42.544;1.516;2023-02-15T15:27:50;12.93;17.15
72772;SHT30;60894;42.544;1.516;2023-02-15T15:42:54;12.05;20.65
72772;SHT30;60894;42.544;1.516;2023-02-15T15:45:45;11.74;23.45
72772;SHT30;60894;42.544;1.516;2023-02-15T15:48:29;11.57;23.31
72772;SHT30;60894;42.544;1.516;2023-02-15T15:50:58;11.10;25.46
72772;SHT30;60894;42.544;1.516;2023-02-15T15:53:29;10.86;27.08
72772;SHT30;60894;42.544;1.516;2023-02-15T15:56:05;10.62;26.04
72772;SHT30;60894;42.544;1.516;2023-02-15T15:58:34;10.38;28.15
72772;SHT30;60894;42.544;1.516;2023-02-15T16:01:03;10.32;29.20
72772;SHT30;60894;42.544;1.516;2023-02-15T16:03:33;10.38;29.89
72772;SHT30;60894;42.544;1.516;2023-02-15T16:06:01;10.62;27.76
72772;SHT30;60894;42.544;1.516;2023-02-15T16:08:32;10.79;26.05
72772;SHT30;60894;42.544;1.516;2023-02-15T16:11:05;10.76;26.70
72772;SHT30;60894;42.544;1.516;2023-02-15T16:13:34;10.68;27.06
72772;SHT30;60894;42.544;1.516;2023-02-15T16:16:01;10.65;28.21
72772;SHT30;60894;42.544;1.516;2023-02-15T16:18:29;10.46;28.20
72772;SHT30;60894;42.544;1.516;2023-02-15T16:20:59;10.25;27.74
72772;SHT30;60894;42.544;1.516;2023-02-15T16:23:54;10.00;28.17
72772;SHT30;60894;42.544;1.516;2023-02-15T16:29:27;9.89;28.87
72772;SHT30;60894;42.544;1.516;2023-02-15T16:31:59;9.77;28.95
72772;SHT30;60894;42.544;1.516;2023-02-15T16:34:27;9.64;29.21
72772;SHT30;60894;42.544;1.516;2023-02-15T16:37:12;9.67;28.23
72772;SHT30;60894;42.544;1.516;2023-02-15T16:39:42;9.50;28.48
72772;SHT30;60894;42.544;1.516;2023-02-15T16:42:11;9.39;29.46
72772;SHT30;60894;42.544;1.516;2023-02-15T16:44:39;9.42;29.29